Time;durP1;ratioP1;P1;durP2;ratioP2;P2;SDS_P1;SDS_P2;PMS_P1;PMS_P2;Temp;Humidity;BMP_temperature;BMP_pressure;BME280_temperature;BME280_humidity;BME280_pressure;Samples;Min_cycle;Max_cycle;Signal;HPM_P1;HPM_P2
2022/05/30 00:00:17;;;;;;;11.73;3.22;;;9.60;99.90;;;;;;5049858;28;25059;-70
2022/05/30 00:02:43;;;;;;;8.48;2.70;;;9.60;99.90;;;;;;5050281;28;25149;-69
2022/05/30 00:05:10;;;;;;;13.93;3.45;;;9.60;99.90;;;;;;5067189;28;25063;-69
2022/05/30 00:07:37;;;;;;;15.48;2.83;;;9.60;99.90;;;;;;5068525;28;25111;-68
2022/05/30 00:10:04;;;;;;;5.57;2.33;;;9.60;99.90;;;;;;5069474;28;25100;-68
2022/05/30 00:12:30;;;;;;;11.52;3.05;;;9.50;99.90;;;;;;5051525;28;25070;-68
2022/05/30 00:14:56;;;;;;;14.43;3.08;;;9.50;99.90;;;;;;5067101;28;25071;-69
2022/05/30 00:17:21;;;;;;;13.88;3.47;;;9.50;99.90;;;;;;5069198;28;25073;-68
2022/05/30 00:19:47;;;;;;;13.05;2.63;;;9.50;99.90;;;;;;5062465;28;25062;-68
2022/05/30 00:22:15;;;;;;;14.30;2.50;;;9.50;99.90;;;;;;5047968;28;25147;-68
2022/05/30 00:24:43;;;;;;;12.85;2.75;;;9.50;99.90;;;;;;5063744;28;25124;-69
2022/05/30 00:27:12;;;;;;;16.35;3.05;;;9.60;99.90;;;;;;5066646;28;25068;-69
2022/05/30 00:30:06;;;;;;;16.40;2.88;;;9.60;99.90;;;;;;5053684;28;25065;-70
2022/05/30 00:32:37;;;;;;;7.72;2.88;;;9.50;99.90;;;;;;5072500;28;25105;-69
2022/05/30 00:35:04;;;;;;;14.53;3.00;;;9.50;99.90;;;;;;5069446;28;25137;-72
2022/05/30 00:37:30;;;;;;;10.18;3.30;;;9.40;99.90;;;;;;5068165;28;25071;-68
2022/05/30 00:39:56;;;;;;;15.60;3.25;;;9.40;99.90;;;;;;5066022;28;25112;-70
2022/05/30 00:42:24;;;;;;;16.40;2.65;;;9.40;99.90;;;;;;5064491;28;25133;-69
2022/05/30 00:44:50;;;;;;;12.20;2.78;;;9.30;99.90;;;;;;5062348;28;25146;-69
2022/05/30 00:47:19;;;;;;;12.10;2.92;;;9.30;99.90;;;;;;5060717;28;25177;-70
2022/05/30 00:49:46;;;;;;;9.60;2.42;;;9.50;99.90;;;;;;5061589;28;25074;-70
2022/05/30 00:52:19;;;;;;;11.07;2.30;;;9.50;99.90;;;;;;5062396;28;25149;-70
2022/05/30 00:54:50;;;;;;;;;;;9.60;99.90;;;;;;5061896;28;25074;-69
2022/05/30 00:57:22;;;;;;;17.05;3.63;;;9.50;99.90;;;;;;5064625;28;25120;-69
2022/05/30 00:59:53;;;;;;;8.90;2.63;;;9.40;99.90;;;;;;5063122;28;25148;-72
2022/05/30 01:02:21;;;;;;;11.07;3.08;;;9.40;99.90;;;;;;5063046;28;25061;-70
2022/05/30 01:07:32;;;;;;;15.60;3.00;;;9.30;99.90;;;;;;5063295;28;25060;-69
2022/05/30 01:09:59;;;;;;;15.68;3.33;;;9.30;99.90;;;;;;5063052;28;25074;-70
2022/05/30 01:12:43;;;;;;;14.40;2.72;;;9.30;99.90;;;;;;5063234;28;25065;-72
2022/05/30 01:15:13;;;;;;;9.82;2.60;;;9.40;99.90;;;;;;5064431;28;25114;-71
2022/05/30 01:18:03;;;;;;;11.30;2.45;;;9.30;99.90;;;;;;5070380;28;25070;-70
2022/05/30 01:20:44;;;;;;;11.57;2.75;;;9.30;99.90;;;;;;5064993;28;25064;-71
2022/05/30 01:23:36;;;;;;;10.32;2.72;;;9.30;99.90;;;;;;5064111;28;25052;-70
2022/05/30 01:26:11;;;;;;;18.10;3.03;;;9.40;99.90;;;;;;5045925;28;25140;-69
2022/05/30 01:28:49;;;;;;;13.50;3.05;;;9.30;99.90;;;;;;5064460;28;25113;-70
2022/05/30 01:31:16;;;;;;;8.82;2.85;;;9.20;99.90;;;;;;5046993;28;25049;-70
2022/05/30 01:33:42;;;;;;;12.07;2.85;;;9.20;99.90;;;;;;5066914;28;25084;-69
2022/05/30 01:36:08;;;;;;;10.80;2.50;;;9.20;99.90;;;;;;5069669;28;25183;-68
2022/05/30 01:38:34;;;;;;;9.02;2.60;;;9.10;99.90;;;;;;5053120;28;25106;-69
2022/05/30 01:41:00;;;;;;;9.43;3.20;;;9.20;99.90;;;;;;5068085;28;25094;-70
2022/05/30 01:43:26;;;;;;;11.20;2.83;;;9.20;99.90;;;;;;5063289;28;25067;-68
2022/05/30 01:45:52;;;;;;;13.27;2.85;;;9.20;99.90;;;;;;5062852;28;25090;-71
2022/05/30 01:48:17;;;;;;;15.98;2.70;;;9.20;99.90;;;;;;5067561;28;25075;-70
2022/05/30 01:50:45;;;;;;;8.48;2.13;;;9.20;99.90;;;;;;5071884;28;25106;-69
2022/05/30 01:53:11;;;;;;;10.93;2.45;;;9.10;99.90;;;;;;5071143;28;25122;-69
2022/05/30 01:55:37;;;;;;;14.05;2.55;;;9.10;99.90;;;;;;5048429;28;25122;-71
2022/05/30 01:58:03;;;;;;;10.27;2.83;;;9.10;99.90;;;;;;5068651;28;25068;-71
2022/05/30 02:00:29;;;;;;;8.95;2.75;;;9.10;99.90;;;;;;5068320;28;25076;-72
2022/05/30 02:02:54;;;;;;;9.27;2.55;;;9.10;99.90;;;;;;5075025;28;25097;-72
2022/05/30 02:05:20;;;;;;;13.10;2.95;;;9.10;99.90;;;;;;5058908;28;25103;-72
2022/05/30 02:07:45;;;;;;;13.65;2.80;;;9.10;99.90;;;;;;5074383;28;25072;-68
2022/05/30 02:10:11;;;;;;;10.23;2.92;;;9.10;99.90;;;;;;5066167;28;25076;-71
2022/05/30 02:12:37;;;;;;;10.43;2.63;;;9.10;99.90;;;;;;5043978;28;25086;-70
2022/05/30 02:15:03;;;;;;;13.95;2.80;;;9.10;99.90;;;;;;5061993;28;25061;-67
2022/05/30 02:17:32;;;;;;;9.50;2.60;;;9.00;99.90;;;;;;5061230;28;25111;-70
2022/05/30 02:19:58;;;;;;;15.23;2.75;;;8.90;99.90;;;;;;5043200;28;25055;-70
2022/05/30 02:22:24;;;;;;;14.25;2.67;;;8.80;99.90;;;;;;5062076;28;25051;-68
2022/05/30 02:27:18;;;;;;;17.20;3.08;;;8.70;99.90;;;;;;5070907;22;25139;-62
2022/05/30 02:29:44;;;;;;;10.65;2.70;;;8.60;99.90;;;;;;5057201;28;25108;-62
2022/05/30 02:32:10;;;;;;;17.23;2.80;;;8.60;99.90;;;;;;5057794;28;25139;-63
2022/05/30 02:37:20;;;;;;;17.60;3.22;;;8.60;99.90;;;;;;5054867;28;25145;-62
2022/05/30 02:39:46;;;;;;;14.50;2.63;;;8.60;99.90;;;;;;5053979;28;25068;-64
2022/05/30 02:42:12;;;;;;;9.60;2.75;;;8.60;99.90;;;;;;5073975;22;25136;-67
2022/05/30 02:44:38;;;;;;;13.00;3.08;;;8.60;99.90;;;;;;5063441;28;25090;-68
2022/05/30 02:47:05;;;;;;;14.55;3.53;;;8.70;99.90;;;;;;5063875;28;25078;-67
2022/05/30 02:49:31;;;;;;;8.85;2.50;;;8.70;99.90;;;;;;5064105;28;25068;-67
2022/05/30 02:51:57;;;;;;;14.63;3.00;;;8.70;99.90;;;;;;5065086;28;25076;-67
2022/05/30 02:54:23;;;;;;;13.82;2.70;;;8.70;99.90;;;;;;5062993;28;25112;-67
2022/05/30 02:56:50;;;;;;;11.43;2.83;;;8.60;99.90;;;;;;5062844;28;25060;-67
2022/05/30 02:59:16;;;;;;;9.02;2.55;;;8.60;99.90;;;;;;5064612;28;25062;-68
2022/05/30 03:01:42;;;;;;;12.32;2.60;;;8.70;99.90;;;;;;5045813;28;25058;-68
2022/05/30 03:04:07;;;;;;;11.00;3.03;;;8.80;99.90;;;;;;5064100;28;25152;-67
2022/05/30 03:06:33;;;;;;;7.68;2.55;;;8.70;99.90;;;;;;5063882;28;25154;-67
2022/05/30 03:09:00;;;;;;;8.10;2.70;;;8.70;99.90;;;;;;5063370;28;25058;-67
2022/05/30 03:11:26;;;;;;;11.50;2.92;;;8.80;99.90;;;;;;5062667;28;25078;-67
2022/05/30 03:13:52;;;;;;;11.23;2.58;;;8.80;99.90;;;;;;5061890;28;25138;-68
2022/05/30 03:16:18;;;;;;;10.63;3.13;;;8.80;99.90;;;;;;5063918;28;25071;-67
2022/05/30 03:18:43;;;;;;;5.57;2.42;;;8.80;99.90;;;;;;5062599;28;25091;-67
2022/05/30 03:21:10;;;;;;;9.48;2.70;;;8.90;99.90;;;;;;5063315;28;25203;-67
2022/05/30 03:23:35;;;;;;;9.57;2.95;;;8.90;99.90;;;;;;5063391;28;25060;-68
2022/05/30 03:26:01;;;;;;;11.02;3.20;;;8.90;99.90;;;;;;5064655;28;25107;-66
2022/05/30 03:28:27;;;;;;;8.55;2.78;;;8.90;99.90;;;;;;5062607;28;25132;-66
2022/05/30 03:30:52;;;;;;;11.48;2.80;;;9.00;99.90;;;;;;5064233;28;25097;-67
2022/05/30 03:33:18;;;;;;;10.77;2.90;;;9.00;99.90;;;;;;5062356;28;25186;-67
2022/05/30 03:35:43;;;;;;;9.40;2.58;;;9.00;99.90;;;;;;5063461;28;25076;-67
2022/05/30 03:38:09;;;;;;;9.23;2.45;;;9.00;99.90;;;;;;5063645;28;25082;-67
2022/05/30 03:40:37;;;;;;;7.78;2.40;;;9.10;99.90;;;;;;5062279;28;25083;-66
2022/05/30 03:43:08;;;;;;;11.48;3.00;;;9.20;99.90;;;;;;5061789;28;25071;-67
2022/05/30 03:45:39;;;;;;;8.75;2.20;;;9.10;99.90;;;;;;5063982;28;25067;-68
2022/05/30 03:48:05;;;;;;;10.45;2.75;;;9.10;99.90;;;;;;5065576;28;25063;-67
2022/05/30 03:50:32;;;;;;;13.38;2.72;;;9.10;99.90;;;;;;5065337;28;25111;-67
2022/05/30 03:53:05;;;;;;;8.95;2.45;;;9.20;99.90;;;;;;5063430;28;25027;-68
2022/05/30 03:55:32;;;;;;;9.15;2.55;;;9.20;99.90;;;;;;5063646;28;25149;-67
2022/05/30 03:57:57;;;;;;;7.90;2.65;;;9.20;99.90;;;;;;5066932;28;25085;-68
2022/05/30 04:00:23;;;;;;;8.75;2.67;;;9.20;99.90;;;;;;5062608;28;25100;-68
2022/05/30 04:02:49;;;;;;;10.13;3.03;;;9.30;99.90;;;;;;5064739;28;25190;-67
2022/05/30 04:05:16;;;;;;;12.77;3.50;;;9.10;99.90;;;;;;5063629;28;25098;-66
2022/05/30 04:07:42;;;;;;;12.77;2.83;;;9.00;99.90;;;;;;5062985;28;25099;-69
2022/05/30 04:10:08;;;;;;;5.45;2.50;;;9.00;99.90;;;;;;5048277;28;25088;-68
2022/05/30 04:12:34;;;;;;;10.88;3.28;;;8.90;99.90;;;;;;5076149;28;25066;-67
2022/05/30 04:15:00;;;;;;;13.07;3.47;;;8.80;99.90;;;;;;5067280;28;25157;-68
2022/05/30 04:17:27;;;;;;;12.20;3.53;;;8.80;99.90;;;;;;5067525;28;25131;-68
2022/05/30 04:19:53;;;;;;;11.68;3.00;;;8.80;99.90;;;;;;5065889;28;25117;-68
2022/05/30 04:22:19;;;;;;;13.63;3.38;;;8.80;99.90;;;;;;5067420;28;25097;-68
2022/05/30 04:24:46;;;;;;;14.18;3.55;;;8.80;99.90;;;;;;5072473;28;25069;-67
2022/05/30 04:27:12;;;;;;;10.52;3.05;;;8.90;99.90;;;;;;5085935;28;25080;-68
2022/05/30 04:29:38;;;;;;;8.32;3.00;;;9.00;99.90;;;;;;5087153;28;25081;-67
2022/05/30 04:32:04;;;;;;;13.70;3.78;;;9.00;99.90;;;;;;5089692;28;25047;-68
2022/05/30 04:34:30;;;;;;;8.45;3.67;;;9.00;99.90;;;;;;5088695;28;25074;-67
2022/05/30 04:36:56;;;;;;;6.90;3.08;;;9.00;99.90;;;;;;5086547;28;25100;-68
2022/05/30 04:39:22;;;;;;;13.75;3.35;;;9.10;99.90;;;;;;5084895;28;25059;-68
2022/05/30 04:41:48;;;;;;;15.32;3.28;;;9.20;99.90;;;;;;5075456;28;25074;-67
2022/05/30 04:44:13;;;;;;;10.18;3.40;;;9.20;99.90;;;;;;5070935;28;25054;-66
2022/05/30 04:46:39;;;;;;;11.85;3.38;;;9.30;99.90;;;;;;5073310;28;25134;-65
2022/05/30 04:49:05;;;;;;;13.98;4.05;;;9.30;99.90;;;;;;5073778;28;25172;-66
2022/05/30 04:51:30;;;;;;;18.92;3.60;;;9.40;99.90;;;;;;5069353;28;25064;-69
2022/05/30 04:53:56;;;;;;;15.02;3.75;;;9.40;99.90;;;;;;5066306;28;25109;-68
2022/05/30 04:56:23;;;;;;;11.75;3.50;;;9.50;99.90;;;;;;5068467;28;25065;-67
2022/05/30 04:58:50;;;;;;;9.57;2.65;;;9.60;99.90;;;;;;5068852;28;25063;-67
2022/05/30 05:01:16;;;;;;;7.28;3.75;;;9.80;99.90;;;;;;5063977;28;25071;-66
2022/05/30 05:03:43;;;;;;;10.48;3.60;;;10.00;99.90;;;;;;5062523;28;25145;-68
2022/05/30 05:06:18;;;;;;;17.10;3.33;;;10.10;99.90;;;;;;5063115;28;25084;-68
2022/05/30 05:09:22;;;;;;;9.73;3.17;;;10.10;99.90;;;;;;5063001;28;25069;-67
2022/05/30 05:11:48;;;;;;;12.25;3.20;;;10.10;99.90;;;;;;5062952;28;25079;-65
2022/05/30 05:14:16;;;;;;;11.85;3.42;;;10.20;99.90;;;;;;5064447;28;25061;-68
2022/05/30 05:16:42;;;;;;;9.52;3.03;;;10.20;99.90;;;;;;5064430;28;25124;-67
2022/05/30 05:19:08;;;;;;;16.00;2.53;;;10.20;99.90;;;;;;5067367;28;25134;-66
2022/05/30 05:21:39;;;;;;;13.02;2.97;;;10.20;99.90;;;;;;5067054;28;25079;-66
2022/05/30 05:24:07;;;;;;;11.25;3.15;;;10.30;99.90;;;;;;5065196;28;25060;-66
2022/05/30 05:26:33;;;;;;;14.07;2.53;;;10.30;99.90;;;;;;5066049;28;25046;-67
2022/05/30 05:28:59;;;;;;;14.05;3.15;;;10.40;99.90;;;;;;5068949;28;25073;-68
2022/05/30 05:31:32;;;;;;;9.80;2.70;;;10.50;99.90;;;;;;5065770;28;25092;-67
2022/05/30 05:33:58;;;;;;;9.38;2.55;;;10.60;99.90;;;;;;5064615;28;25091;-66
2022/05/30 05:36:31;;;;;;;8.75;2.10;;;10.60;99.90;;;;;;5051603;28;25062;-67
2022/05/30 05:38:57;;;;;;;;;;;10.70;99.90;;;;;;5065104;28;25098;-67
2022/05/30 05:41:23;;;;;;;18.48;3.45;;;10.80;99.90;;;;;;5061970;28;25141;-66
2022/05/30 05:43:49;;;;;;;10.02;2.80;;;10.90;99.90;;;;;;5065012;28;25150;-67
2022/05/30 05:46:16;;;;;;;7.20;1.77;;;10.90;99.90;;;;;;5063831;28;25130;-67
2022/05/30 05:48:42;;;;;;;10.77;1.83;;;11.00;99.90;;;;;;5063732;28;25061;-66
2022/05/30 05:51:08;;;;;;;8.68;1.63;;;11.00;99.90;;;;;;5061481;28;25060;-68
2022/05/30 05:53:34;;;;;;;7.32;1.30;;;11.10;99.90;;;;;;5060755;28;25142;-69
2022/05/30 05:56:09;;;;;;;9.80;2.03;;;11.10;99.90;;;;;;5059818;28;25100;-71
2022/05/30 05:58:35;;;;;;;11.45;2.08;;;11.20;99.90;;;;;;5059514;28;25146;-68
2022/05/30 06:01:09;;;;;;;11.48;2.28;;;11.40;99.90;;;;;;5061051;28;25122;-68
2022/05/30 06:03:35;;;;;;;9.32;2.28;;;11.50;99.90;;;;;;5059841;28;25109;-67
2022/05/30 06:06:02;;;;;;;8.30;1.67;;;11.70;99.90;;;;;;5040055;28;25155;-67
2022/05/30 06:08:28;;;;;;;6.18;1.92;;;11.80;99.90;;;;;;5062622;28;25135;-67
2022/05/30 06:11:05;;;;;;;11.65;2.15;;;11.90;99.90;;;;;;5063452;28;25109;-68
2022/05/30 06:13:32;;;;;;;10.60;1.83;;;12.00;99.90;;;;;;5063055;28;25082;-67
2022/05/30 06:15:57;;;;;;;9.82;1.83;;;12.00;99.90;;;;;;5064259;28;25083;-66
2022/05/30 06:18:23;;;;;;;10.82;2.13;;;12.00;99.90;;;;;;5058955;28;25066;-67
2022/05/30 06:20:49;;;;;;;5.57;1.58;;;11.80;99.90;;;;;;5063177;28;25058;-67
2022/05/30 06:23:14;;;;;;;10.85;1.75;;;11.90;99.90;;;;;;5061913;28;25059;-67
2022/05/30 06:25:41;;;;;;;9.38;1.95;;;12.10;99.90;;;;;;5061738;28;25083;-66
2022/05/30 06:28:07;;;;;;;4.72;1.58;;;12.20;99.90;;;;;;5060518;28;25075;-68
2022/05/30 06:30:36;;;;;;;10.68;2.17;;;12.40;99.90;;;;;;5061738;28;25055;-66
2022/05/30 06:33:01;;;;;;;3.78;1.33;;;12.30;99.90;;;;;;5063110;28;25075;-66
2022/05/30 06:35:27;;;;;;;6.38;1.60;;;12.10;99.90;;;;;;5062460;28;25079;-67
2022/05/30 06:37:52;;;;;;;13.10;2.45;;;12.20;99.90;;;;;;5061460;28;25078;-66
2022/05/30 06:40:18;;;;;;;9.65;1.70;;;12.20;99.90;;;;;;5045879;28;25099;-67
2022/05/30 06:42:43;;;;;;;11.20;2.03;;;12.20;99.90;;;;;;5061349;28;25091;-65
2022/05/30 06:45:09;;;;;;;7.22;2.78;;;12.40;99.90;;;;;;5062067;28;25099;-66
2022/05/30 06:47:35;;;;;;;5.57;1.27;;;12.40;99.90;;;;;;5063961;28;25081;-68
2022/05/30 06:50:00;;;;;;;8.13;1.73;;;12.40;99.90;;;;;;5046490;28;25104;-68
2022/05/30 06:52:26;;;;;;;10.05;1.60;;;12.90;99.90;;;;;;5067951;28;25054;-68
2022/05/30 06:54:51;;;;;;;7.55;1.27;;;13.40;99.90;;;;;;5065907;28;25074;-66
2022/05/30 07:00:02;;;;;;;7.35;1.75;;;13.20;99.90;;;;;;5062941;28;25116;-67
2022/05/30 07:02:28;;;;;;;4.38;1.10;;;13.30;99.90;;;;;;5061412;28;25106;-67
2022/05/30 07:04:53;;;;;;;4.97;1.58;;;13.20;99.90;;;;;;5058579;28;25151;-67
2022/05/30 07:07:19;;;;;;;8.50;1.60;;;12.60;98.60;;;;;;5064674;28;25140;-67
2022/05/30 07:09:44;;;;;;;4.00;1.00;;;12.60;99.90;;;;;;5063627;28;25079;-68
2022/05/30 07:12:10;;;;;;;5.30;1.13;;;13.10;99.90;;;;;;5063786;28;25146;-66
2022/05/30 07:14:36;;;;;;;4.90;1.10;;;13.50;99.10;;;;;;5063833;28;25063;-66
2022/05/30 07:17:02;;;;;;;6.25;1.15;;;13.80;97.90;;;;;;5061300;28;25145;-67
2022/05/30 07:19:27;;;;;;;6.43;1.48;;;13.10;95.80;;;;;;5063240;28;25088;-67
2022/05/30 07:21:53;;;;;;;3.35;1.52;;;13.00;98.80;;;;;;5047751;28;25064;-67
2022/05/30 07:24:18;;;;;;;4.10;1.17;;;12.80;98.50;;;;;;5058469;28;25075;-65
2022/05/30 07:26:45;;;;;;;6.43;1.58;;;12.60;96.30;;;;;;5059004;28;25050;-69
2022/05/30 07:29:10;;;;;;;6.07;1.35;;;12.60;95.50;;;;;;5061729;28;25076;-68
2022/05/30 07:31:36;;;;;;;7.00;1.05;;;12.90;96.20;;;;;;5058432;28;25156;-69
2022/05/30 07:34:01;;;;;;;4.50;1.60;;;13.10;96.40;;;;;;5062039;28;25130;-67
2022/05/30 07:36:29;;;;;;;5.22;1.23;;;13.30;95.90;;;;;;5063711;28;25142;-68
2022/05/30 07:38:56;;;;;;;7.68;2.15;;;13.80;95.10;;;;;;5061082;28;25050;-69
2022/05/30 07:41:23;;;;;;;4.95;1.23;;;13.60;93.00;;;;;;5064590;28;25066;-68
2022/05/30 07:43:49;;;;;;;4.00;1.20;;;14.00;94.80;;;;;;5060096;28;25066;-67
2022/05/30 07:46:16;;;;;;;6.10;1.23;;;14.80;92.00;;;;;;5063425;28;25139;-67
2022/05/30 07:48:43;;;;;;;5.15;1.20;;;15.00;88.80;;;;;;5064714;28;25111;-68
2022/05/30 07:51:10;;;;;;;3.65;1.10;;;14.70;88.40;;;;;;5063770;28;25098;-67
2022/05/30 07:53:37;;;;;;;2.40;0.90;;;14.90;85.50;;;;;;5044528;28;25048;-68
2022/05/30 07:56:08;;;;;;;3.95;1.25;;;14.90;83.90;;;;;;5063473;28;25099;-67
2022/05/30 07:58:34;;;;;;;4.82;1.02;;;15.80;81.30;;;;;;5061645;28;25073;-69
2022/05/30 08:01:00;;;;;;;3.50;1.30;;;16.40;77.30;;;;;;5062977;28;25160;-69
2022/05/30 08:03:26;;;;;;;4.43;1.02;;;16.60;72.60;;;;;;5044645;28;25144;-67
2022/05/30 08:06:09;;;;;;;4.88;1.33;;;16.40;71.20;;;;;;5063337;28;25060;-68
2022/05/30 08:08:34;;;;;;;;;;;15.90;69.90;;;;;;5062527;28;25137;-68
2022/05/30 08:11:00;;;;;;;5.50;1.70;;;14.60;81.10;;;;;;5063860;28;24060;-68
2022/05/30 08:13:26;;;;;;;4.28;1.13;;;14.50;85.50;;;;;;5061134;28;25086;-67
2022/05/30 08:15:51;;;;;;;4.68;1.17;;;14.90;84.80;;;;;;5062532;28;25067;-68
2022/05/30 08:18:18;;;;;;;2.63;0.82;;;15.10;83.00;;;;;;5060512;28;25122;-67
2022/05/30 08:20:44;;;;;;;7.93;1.35;;;15.20;85.90;;;;;;5064392;28;25074;-68
2022/05/30 08:23:10;;;;;;;17.63;1.70;;;15.20;82.90;;;;;;5066866;28;25073;-68
2022/05/30 08:25:39;;;;;;;6.80;1.42;;;14.70;82.60;;;;;;5065632;28;25211;-69
2022/05/30 08:28:05;;;;;;;8.32;1.73;;;14.70;87.50;;;;;;5063992;28;25115;-70
2022/05/30 08:30:31;;;;;;;4.53;1.20;;;14.80;88.20;;;;;;5066284;28;25064;-68
2022/05/30 08:32:57;;;;;;;3.20;1.17;;;14.40;84.30;;;;;;5065381;28;25106;-67
2022/05/30 08:35:23;;;;;;;5.68;1.40;;;14.60;86.10;;;;;;5061354;28;25109;-67
2022/05/30 08:37:49;;;;;;;6.65;1.50;;;15.20;87.60;;;;;;5060925;28;25113;-68
2022/05/30 08:42:42;;;;;;;3.85;0.82;;;15.10;82.40;;;;;;5051544;22;25094;-61
2022/05/30 08:45:09;;;;;;;8.90;1.45;;;14.90;80.80;;;;;;5030268;28;25124;-62
2022/05/30 08:47:55;;;;;;;8.18;1.50;;;14.70;80.20;;;;;;5033360;28;25107;-63
2022/05/30 08:50:40;;;;;;;7.28;1.13;;;14.40;79.90;;;;;;5031800;28;25096;-62
2022/05/30 08:53:43;;;;;;;7.40;1.10;;;14.40;85.00;;;;;;5028956;28;25138;-62
2022/05/30 08:56:22;;;;;;;4.72;1.38;;;14.20;87.30;;;;;;5031821;28;25073;-63
2022/05/30 08:59:17;;;;;;;5.88;2.35;;;14.20;88.60;;;;;;5032279;28;25106;-62
2022/05/30 09:01:48;;;;;;;10.30;1.88;;;14.00;87.60;;;;;;5031325;28;25128;-63
2022/05/30 09:04:29;;;;;;;5.18;1.35;;;13.80;89.40;;;;;;5030061;28;25159;-62
2022/05/30 09:07:14;;;;;;;5.78;1.42;;;13.90;90.50;;;;;;5031319;28;25050;-62
2022/05/30 09:10:08;;;;;;;8.55;1.05;;;13.80;90.20;;;;;;5029296;28;25178;-62
2022/05/30 09:12:49;;;;;;;4.38;1.10;;;13.70;90.30;;;;;;5032030;28;25149;-64
2022/05/30 09:15:17;;;;;;;4.63;1.10;;;13.60;90.30;;;;;;5030461;28;25140;-64
2022/05/30 09:17:52;;;;;;;3.70;1.35;;;13.70;90.00;;;;;;5031398;28;25070;-62
2022/05/30 09:20:20;;;;;;;5.10;1.20;;;13.60;90.20;;;;;;5029626;28;25065;-63
2022/05/30 09:22:47;;;;;;;7.20;1.42;;;13.40;91.20;;;;;;5029888;28;25075;-64
2022/05/30 09:28:05;;;;;;;2.85;1.27;;;13.40;90.50;;;;;;5033157;28;25119;-65
2022/05/30 09:30:43;;;;;;;8.93;1.63;;;13.50;90.40;;;;;;5037756;28;25057;-64
2022/05/30 09:33:24;;;;;;;10.07;1.73;;;13.30;89.90;;;;;;5032641;28;25133;-64
2022/05/30 09:36:19;;;;;;;4.70;1.65;;;13.00;90.60;;;;;;5016564;28;25099;-64
2022/05/30 09:38:48;;;;;;;11.63;1.85;;;13.10;92.90;;;;;;5031641;28;25103;-62
2022/05/30 09:41:23;;;;;;;7.00;1.65;;;13.00;95.20;;;;;;5031593;28;25115;-62
2022/05/30 09:43:58;;;;;;;7.95;1.05;;;12.50;94.70;;;;;;5030740;28;25142;-63
2022/05/30 09:46:38;;;;;;;8.18;1.58;;;12.40;96.30;;;;;;5031140;28;25055;-62
2022/05/30 09:49:13;;;;;;;5.65;1.58;;;12.30;96.80;;;;;;5029340;28;25049;-64
2022/05/30 09:51:43;;;;;;;10.55;2.00;;;12.20;97.30;;;;;;5031204;28;25072;-62
2022/05/30 09:54:34;;;;;;;8.18;1.25;;;12.20;98.50;;;;;;5028111;28;25093;-64
2022/05/30 09:57:38;;;;;;;2.67;1.20;;;12.20;99.40;;;;;;5030167;28;25069;-62
2022/05/30 10:00:13;;;;;;;5.38;1.27;;;12.20;99.10;;;;;;5027121;28;25115;-63
2022/05/30 10:02:41;;;;;;;7.38;1.48;;;12.10;99.50;;;;;;5030404;28;25058;-65
2022/05/30 10:05:28;;;;;;;8.88;0.98;;;12.20;99.90;;;;;;5027311;28;25125;-62
2022/05/30 10:08:00;;;;;;;3.90;1.17;;;12.30;99.70;;;;;;5029940;28;25085;-63
2022/05/30 10:10:47;;;;;;;5.03;1.30;;;12.50;99.60;;;;;;5028284;28;25097;-63
2022/05/30 10:13:13;;;;;;;7.13;1.30;;;12.60;99.20;;;;;;5029168;28;25066;-63
2022/05/30 10:15:42;;;;;;;7.80;1.52;;;12.50;98.90;;;;;;5028664;28;25061;-61
2022/05/30 10:18:13;;;;;;;4.55;1.73;;;12.60;99.20;;;;;;5030907;28;25134;-61
2022/05/30 10:21:04;;;;;;;6.63;1.37;;;12.80;97.60;;;;;;5027392;28;25065;-62
2022/05/30 10:30:07;;;;;;;4.10;1.30;;;12.80;97.10;;;;;;5030529;28;25121;-63
2022/05/30 10:32:50;;;;;;;3.58;1.25;;;13.00;97.10;;;;;;5031500;28;25154;-62
2022/05/30 10:35:31;;;;;;;6.35;1.80;;;13.00;96.60;;;;;;5029197;28;24711;-62
2022/05/30 10:38:15;;;;;;;6.97;1.30;;;12.70;97.50;;;;;;5030358;28;25150;-62
2022/05/30 10:41:31;;;;;;;2.75;1.35;;;12.80;97.30;;;;;;5027483;28;25066;-63
2022/05/30 10:44:22;;;;;;;4.15;1.35;;;13.00;96.10;;;;;;4984814;28;25072;-63
2022/05/30 10:47:01;;;;;;;6.03;1.33;;;13.30;95.30;;;;;;5027184;28;25079;-62
2022/05/30 10:49:33;;;;;;;6.85;1.77;;;13.50;94.60;;;;;;5031465;28;25064;-62
2022/05/30 10:52:06;;;;;;;7.80;1.42;;;13.70;93.90;;;;;;5030088;28;25074;-63
2022/05/30 10:54:40;;;;;;;;;;;13.60;94.00;;;;;;5031406;28;25077;-62
2022/05/30 10:57:36;;;;;;;8.20;1.80;;;13.60;94.50;;;;;;5030522;28;25080;-64
2022/05/30 11:00:09;;;;;;;4.25;1.35;;;14.00;93.80;;;;;;5031684;28;25124;-63
2022/05/30 11:02:48;;;;;;;6.30;2.22;;;14.20;92.10;;;;;;5033101;28;25080;-64
2022/05/30 11:05:44;;;;;;;3.75;1.13;;;14.40;89.60;;;;;;5029479;28;25128;-61
2022/05/30 11:08:36;;;;;;;5.72;1.50;;;14.30;89.70;;;;;;5030683;28;25066;-63
2022/05/30 11:11:08;;;;;;;4.88;1.23;;;14.00;89.00;;;;;;5028382;28;25047;-62
2022/05/30 11:13:59;;;;;;;6.43;1.23;;;13.90;90.60;;;;;;5026514;28;25169;-64
2022/05/30 11:16:47;;;;;;;7.82;1.98;;;13.70;90.70;;;;;;5028692;28;25123;-61
2022/05/30 11:19:31;;;;;;;6.20;1.83;;;14.00;90.00;;;;;;5029580;28;25171;-63
2022/05/30 11:22:03;;;;;;;4.65;1.23;;;14.20;88.90;;;;;;5029183;28;25077;-61
2022/05/30 11:24:31;;;;;;;3.80;1.25;;;13.90;86.30;;;;;;5031063;28;25099;-63
2022/05/30 11:27:06;;;;;;;5.72;1.60;;;14.30;89.00;;;;;;5030428;28;25099;-63
2022/05/30 11:29:47;;;;;;;6.45;1.65;;;14.70;91.20;;;;;;5029473;28;25067;-63
2022/05/30 11:32:54;;;;;;;2.42;1.05;;;14.80;94.00;;;;;;5029290;28;25053;-61
2022/05/30 11:35:39;;;;;;;6.60;1.60;;;14.70;93.80;;;;;;5033280;28;25055;-61
2022/05/30 11:38:30;;;;;;;4.85;1.13;;;14.30;93.10;;;;;;5029800;28;25128;-63
2022/05/30 11:41:14;;;;;;;4.35;1.40;;;14.10;95.30;;;;;;5029517;28;25100;-64
2022/05/30 11:43:48;;;;;;;5.57;1.35;;;14.40;95.40;;;;;;5029809;28;25078;-63
2022/05/30 11:46:26;;;;;;;5.32;1.42;;;14.50;93.60;;;;;;5033781;28;25120;-62
2022/05/30 11:48:59;;;;;;;5.57;1.35;;;14.60;94.60;;;;;;5033029;28;25070;-62
2022/05/30 11:51:48;;;;;;;4.07;1.25;;;14.60;91.90;;;;;;5033328;28;25135;-61
2022/05/30 11:54:29;;;;;;;5.03;1.75;;;14.80;92.40;;;;;;5033213;28;25121;-60
2022/05/30 11:57:08;;;;;;;6.25;1.70;;;15.00;90.40;;;;;;5033532;28;25098;-61
2022/05/30 12:00:04;;;;;;;4.75;1.45;;;15.60;90.20;;;;;;5032670;28;25124;-63
2022/05/30 12:02:56;;;;;;;8.23;1.90;;;15.60;82.10;;;;;;5032501;28;25140;-62
2022/05/30 12:05:59;;;;;;;7.22;1.95;;;15.10;84.70;;;;;;5033152;28;25123;-63
2022/05/30 12:08:54;;;;;;;6.32;1.55;;;15.20;87.70;;;;;;5034858;28;25107;-62
2022/05/30 12:11:27;;;;;;;10.80;1.90;;;14.90;86.50;;;;;;5032775;28;25082;-62
2022/05/30 12:14:06;;;;;;;;;;;14.70;91.00;;;;;;5033544;28;25114;-62
2022/05/30 12:16:45;;;;;;;10.70;1.60;;;15.00;88.70;;;;;;5034340;28;25054;-61
2022/05/30 12:25:33;;;;;;;5.32;1.98;;;15.20;84.20;;;;;;5037223;28;25051;-61
2022/05/30 12:27:59;;;;;;;8.70;1.60;;;14.80;86.90;;;;;;5038167;28;25058;-61
2022/05/30 12:30:34;;;;;;;5.85;2.15;;;14.40;88.80;;;;;;5036603;28;25096;-61
2022/05/30 12:33:00;;;;;;;7.28;2.08;;;14.50;89.60;;;;;;5036976;28;25068;-63
2022/05/30 12:35:29;;;;;;;10.80;2.78;;;14.80;89.50;;;;;;5035164;28;25075;-62
2022/05/30 12:38:01;;;;;;;6.85;1.70;;;14.60;89.70;;;;;;5037316;28;25098;-62
2022/05/30 12:40:26;;;;;;;7.47;2.07;;;15.00;90.00;;;;;;5037269;28;25083;-60
2022/05/30 12:43:04;;;;;;;5.35;1.92;;;15.30;87.60;;;;;;5035911;28;25097;-61
2022/05/30 12:45:55;;;;;;;3.70;1.60;;;15.10;89.10;;;;;;5036717;28;25112;-60
2022/05/30 12:48:33;;;;;;;4.88;1.40;;;15.30;88.20;;;;;;5005818;28;25062;-61
2022/05/30 12:51:07;;;;;;;4.43;1.77;;;15.50;84.60;;;;;;5046617;28;25056;-62
2022/05/30 12:53:54;;;;;;;5.00;1.50;;;14.80;84.10;;;;;;5037183;28;25075;-61
2022/05/30 12:56:38;;;;;;;5.40;1.73;;;14.50;85.80;;;;;;5035405;28;25073;-60
2022/05/30 12:59:03;;;;;;;7.47;2.13;;;14.80;85.90;;;;;;5036869;28;25069;-61
2022/05/30 13:01:53;;;;;;;5.90;2.15;;;15.40;82.50;;;;;;5036703;28;25066;-61
2022/05/30 13:04:21;;;;;;;7.35;1.75;;;15.70;80.40;;;;;;5034886;28;25095;-61
2022/05/30 13:07:01;;;;;;;6.38;1.83;;;15.70;78.30;;;;;;5037037;28;25059;-60
2022/05/30 13:09:44;;;;;;;6.97;2.10;;;15.40;76.90;;;;;;5037621;28;25067;-61
2022/05/30 13:12:17;;;;;;;6.50;1.75;;;15.50;79.00;;;;;;5036837;28;25073;-62
2022/05/30 13:15:01;;;;;;;3.28;1.38;;;15.90;78.30;;;;;;5034629;28;25068;-60
2022/05/30 13:18:00;;;;;;;5.38;1.58;;;16.00;74.10;;;;;;5036091;28;25127;-59
2022/05/30 13:20:39;;;;;;;12.25;1.98;;;15.30;76.20;;;;;;5021489;28;25080;-61
2022/05/30 13:23:06;;;;;;;7.78;1.92;;;14.90;80.80;;;;;;5027311;28;25104;-62
2022/05/30 13:25:33;;;;;;;9.20;2.50;;;15.00;82.20;;;;;;5030800;28;25110;-61
2022/05/30 13:28:18;;;;;;;5.57;1.75;;;14.80;82.10;;;;;;5031237;28;25089;-61
2022/05/30 13:30:44;;;;;;;5.80;1.60;;;14.90;84.40;;;;;;5015682;28;25137;-60
2022/05/30 13:33:28;;;;;;;6.03;1.90;;;15.10;82.10;;;;;;5031400;28;25105;-60
2022/05/30 13:35:57;;;;;;;7.40;1.67;;;15.10;80.20;;;;;;5030919;28;25095;-62
2022/05/30 13:38:33;;;;;;;3.03;1.25;;;14.90;80.20;;;;;;5031412;28;25167;-62